San Diego, California
Traffic Map
Current Weather Conditions
San Diego, California
Broken Clouds
Broken Clouds
23°
Feels Like: 23°
Wind Chill: 23° Ceiling: 20000
Heat Index: 23° Visibility: 9mi
Dew Point: 17° Wind: 3mph
Humidity: 71% Direction: ° ()
Pressure: 30.07in Gusts: 0mph
Raw Report DataKSAN 251751Z VRB03KT 9SM SCT015 SCT100 BKN200 23/17 A3007 RMK AO2 SLP183 T02280172 10233 20194 50015 $
Traffic Incident Summary
Active as of:
Severity:
Category:
InformationThere was an issue retrieving the traffic information for this location. Please try a different location or try again shortly.
Advertisements
Track Severe Weather on mobile